createdAt,value
2024-05-09T00:00:42.551Z,11.88
2024-05-09T00:03:11.012Z,11.77
2024-05-09T00:05:45.212Z,11.77
2024-05-09T00:08:12.642Z,11.68
2024-05-09T00:10:40.823Z,11.64
2024-05-09T00:13:09.247Z,11.60
2024-05-09T00:15:37.029Z,11.59
2024-05-09T00:18:05.302Z,11.56
2024-05-09T00:20:38.376Z,11.44
2024-05-09T00:23:13.578Z,11.40
2024-05-09T00:25:44.767Z,11.38
2024-05-09T00:28:12.476Z,11.35
2024-05-09T00:30:39.939Z,11.23
2024-05-09T00:33:09.155Z,11.15
2024-05-09T00:35:37.680Z,11.14
2024-05-09T00:38:05.115Z,11.12
2024-05-09T00:40:40.095Z,11.10
2024-05-09T00:43:13.551Z,11.14
2024-05-09T00:45:42.704Z,11.10
2024-05-09T00:48:13.496Z,11.11
2024-05-09T00:50:44.131Z,11.04
2024-05-09T00:53:14.181Z,10.83
2024-05-09T00:55:41.818Z,10.63
2024-05-09T00:58:11.962Z,10.50
2024-05-09T01:00:41.127Z,10.41
2024-05-09T01:03:11.821Z,10.56
2024-05-09T01:05:41.315Z,10.58
2024-05-09T01:08:09.246Z,10.56
2024-05-09T01:10:37.311Z,10.55
2024-05-09T01:13:05.332Z,10.44
2024-05-09T01:15:33.954Z,10.22
2024-05-09T01:18:04.342Z,10.17
2024-05-09T01:20:40.494Z,10.23
2024-05-09T01:23:11.971Z,10.11
2024-05-09T01:25:39.734Z,9.99
2024-05-09T01:28:07.257Z,9.88
2024-05-09T01:30:37.243Z,9.92
2024-05-09T01:33:07.382Z,9.92
2024-05-09T01:35:36.497Z,10.01
2024-05-09T01:38:03.973Z,9.99
2024-05-09T01:40:37.696Z,9.99
2024-05-09T01:43:07.995Z,9.97
2024-05-09T01:45:35.417Z,9.88
2024-05-09T01:48:05.472Z,9.73
2024-05-09T01:50:38.664Z,9.75
2024-05-09T01:53:10.387Z,9.64
2024-05-09T01:55:37.731Z,9.59
2024-05-09T01:58:04.942Z,9.57
2024-05-09T02:00:38.877Z,9.70
2024-05-09T02:03:16.228Z,9.44
2024-05-09T02:05:46.593Z,9.38
2024-05-09T02:08:15.593Z,9.38
2024-05-09T02:10:47.630Z,9.25
2024-05-09T02:13:15.836Z,9.23
2024-05-09T02:15:43.013Z,9.33
2024-05-09T02:18:10.796Z,9.29
2024-05-09T02:20:40.646Z,9.22
2024-05-09T02:23:09.171Z,9.34
2024-05-09T02:25:37.056Z,9.21
2024-05-09T02:28:04.207Z,9.27
2024-05-09T02:30:39.692Z,9.31
2024-05-09T02:33:13.552Z,9.14
2024-05-09T02:35:43.019Z,9.19
2024-05-09T02:38:11.075Z,9.24
2024-05-09T02:40:39.638Z,9.19
2024-05-09T02:43:08.564Z,8.90
2024-05-09T02:45:36.891Z,8.89
2024-05-09T02:48:04.421Z,8.82
2024-05-09T02:50:37.865Z,8.86
2024-05-09T02:53:14.015Z,8.83
2024-05-09T02:55:42.416Z,8.72
2024-05-09T02:58:11.328Z,8.63
2024-05-09T03:00:41.410Z,8.69
2024-05-09T03:03:14.803Z,8.70
2024-05-09T03:05:44.127Z,8.72
2024-05-09T03:08:11.678Z,8.65
2024-05-09T03:10:39.581Z,8.48
2024-05-09T03:13:07.437Z,8.30
2024-05-09T03:15:34.440Z,8.14
2024-05-09T03:18:03.602Z,8.25
2024-05-09T03:20:34.696Z,8.18
2024-05-09T03:23:04.524Z,8.16
2024-05-09T03:25:32.045Z,8.06
2024-05-09T03:27:59.439Z,8.16
2024-05-09T03:30:38.380Z,8.19
2024-05-09T03:33:15.377Z,8.12
2024-05-09T03:35:44.088Z,8.11
2024-05-09T03:38:11.211Z,8.15
2024-05-09T03:40:44.952Z,7.86
2024-05-09T03:43:13.171Z,7.83
2024-05-09T03:45:41.960Z,7.75
2024-05-09T03:48:09.176Z,7.64
2024-05-09T03:50:37.463Z,7.83
2024-05-09T03:53:05.218Z,7.85
2024-05-09T03:55:32.921Z,7.82
2024-05-09T03:58:00.047Z,7.70
2024-05-09T04:00:35.428Z,7.73
2024-05-09T04:03:11.122Z,7.62
2024-05-09T04:05:42.406Z,7.44
2024-05-09T04:08:10.994Z,7.18
2024-05-09T04:10:38.345Z,7.31
2024-05-09T04:13:08.207Z,7.33
2024-05-09T04:15:35.866Z,7.29
2024-05-09T04:18:03.209Z,7.18
2024-05-09T04:20:37.757Z,7.42
2024-05-09T04:23:11.394Z,7.42
2024-05-09T04:25:40.814Z,7.35
2024-05-09T04:28:08.100Z,7.32
2024-05-09T04:30:39.217Z,7.45
2024-05-09T04:33:10.681Z,7.62
2024-05-09T04:35:39.705Z,7.69
2024-05-09T04:38:07.848Z,7.53
2024-05-09T04:40:36.951Z,7.35
2024-05-09T04:43:06.230Z,7.36
2024-05-09T04:45:33.917Z,7.61
2024-05-09T04:48:01.731Z,7.63
2024-05-09T04:50:35.798Z,7.63
2024-05-09T04:53:11.362Z,7.64
2024-05-09T04:55:40.036Z,7.47
2024-05-09T04:58:14.326Z,7.24
2024-05-09T05:00:43.032Z,7.45
2024-05-09T05:03:14.071Z,7.59
2024-05-09T05:05:43.996Z,7.40
2024-05-09T05:08:13.503Z,7.47
2024-05-09T05:10:41.487Z,7.57
2024-05-09T05:13:23.735Z,7.42
2024-05-09T05:15:57.417Z,7.67
2024-05-09T05:18:26.725Z,7.69
2024-05-09T05:20:55.786Z,7.66
2024-05-09T05:23:23.530Z,7.83
2024-05-09T05:25:55.478Z,8.00
2024-05-09T05:28:23.107Z,8.11
2024-05-09T05:30:50.315Z,8.28
2024-05-09T05:33:22.544Z,8.34
2024-05-09T05:35:50.136Z,8.39
2024-05-09T05:38:17.213Z,8.44
2024-05-09T05:40:44.591Z,8.65
2024-05-09T05:43:18.586Z,8.72
2024-05-09T05:45:46.178Z,8.89
2024-05-09T05:48:16.544Z,8.98
2024-05-09T05:50:45.810Z,9.05
2024-05-09T05:53:13.016Z,9.15
2024-05-09T05:55:43.351Z,9.23
2024-05-09T05:58:11.254Z,9.31
2024-05-09T06:00:40.534Z,9.38
2024-05-09T06:03:11.699Z,9.43
2024-05-09T06:05:48.185Z,9.56
2024-05-09T06:08:15.238Z,9.62
2024-05-09T06:10:42.639Z,9.70
2024-05-09T06:13:13.600Z,9.80
2024-05-09T06:15:41.689Z,9.88
2024-05-09T06:18:11.120Z,9.95
2024-05-09T06:20:42.365Z,9.98
2024-05-09T06:23:10.803Z,10.11
2024-05-09T06:25:38.124Z,10.01
2024-05-09T06:28:05.685Z,10.18
2024-05-09T06:30:38.954Z,10.29
2024-05-09T06:33:10.444Z,10.31
2024-05-09T06:35:38.989Z,10.41
2024-05-09T06:38:08.714Z,10.61
2024-05-09T06:40:42.452Z,10.70
2024-05-09T06:43:17.707Z,10.76
2024-05-09T06:45:50.164Z,10.94
2024-05-09T06:48:21.814Z,10.96
2024-05-09T06:50:50.370Z,11.12
2024-05-09T06:53:20.552Z,11.23
2024-05-09T06:55:47.843Z,11.23
2024-05-09T06:58:15.902Z,11.33
2024-05-09T07:00:43.010Z,11.39
2024-05-09T07:03:13.431Z,11.58
2024-05-09T07:05:42.846Z,11.61
2024-05-09T07:08:10.845Z,11.70
2024-05-09T07:10:38.391Z,11.82
2024-05-09T07:13:14.490Z,11.92
2024-05-09T07:15:42.112Z,11.91
2024-05-09T07:18:17.903Z,12.13
2024-05-09T07:20:46.894Z,12.20
2024-05-09T07:23:15.263Z,12.25
2024-05-09T07:25:43.172Z,12.34
2024-05-09T07:28:18.057Z,12.39
2024-05-09T07:30:45.206Z,12.46
2024-05-09T07:33:21.177Z,12.60
2024-05-09T07:35:50.769Z,12.67
2024-05-09T07:38:17.879Z,12.74
2024-05-09T07:40:45.063Z,12.82
2024-05-09T07:43:13.034Z,12.97
2024-05-09T07:45:49.910Z,13.07
2024-05-09T07:52:38.606Z,13.29
2024-05-09T07:53:47.242Z,13.31
2024-05-09T07:56:21.067Z,13.45
2024-05-09T07:58:51.357Z,13.59
2024-05-09T08:01:19.364Z,13.61
2024-05-09T08:03:49.166Z,13.68
2024-05-09T08:06:16.451Z,13.75
2024-05-09T08:08:45.575Z,13.86
2024-05-09T08:11:13.021Z,13.84
2024-05-09T08:13:40.133Z,13.99
2024-05-09T08:16:09.340Z,14.16
2024-05-09T08:18:36.724Z,14.24
2024-05-09T08:21:04.032Z,14.35
2024-05-09T08:23:31.333Z,14.23
2024-05-09T08:25:58.541Z,14.45
2024-05-09T08:28:25.672Z,14.47
2024-05-09T08:30:52.935Z,14.61
2024-05-09T08:33:20.201Z,14.75
2024-05-09T08:35:47.665Z,14.80
2024-05-09T08:38:14.806Z,14.83
2024-05-09T08:40:42.279Z,14.96
2024-05-09T08:43:11.868Z,15.08
2024-05-09T08:45:44.741Z,15.11
2024-05-09T08:48:15.472Z,15.19
2024-05-09T08:50:44.634Z,15.32
2024-05-09T08:53:12.664Z,15.47
2024-05-09T08:55:43.025Z,15.47
2024-05-09T08:58:16.679Z,15.64
2024-05-09T09:00:45.648Z,15.70
2024-05-09T09:03:19.908Z,15.74
2024-05-09T09:06:05.452Z,15.83
2024-05-09T09:08:32.721Z,15.95
2024-05-09T09:11:00.508Z,15.94
2024-05-09T09:13:27.886Z,15.98
2024-05-09T09:15:58.707Z,16.08
2024-05-09T09:18:26.927Z,16.22
2024-05-09T09:20:55.385Z,16.41
2024-05-09T09:23:22.696Z,16.28
2024-05-09T09:25:59.830Z,16.44
2024-05-09T09:28:26.976Z,16.65
2024-05-09T09:31:01.048Z,16.77
2024-05-09T09:33:33.128Z,16.86
2024-05-09T09:36:03.798Z,17.01
2024-05-09T09:38:31.580Z,17.32
2024-05-09T09:41:00.040Z,17.23
2024-05-09T09:43:27.837Z,17.44
2024-05-09T09:45:59.840Z,17.58
2024-05-09T09:48:27.637Z,17.80
2024-05-09T09:50:55.475Z,18.08
2024-05-09T09:53:25.857Z,18.19
2024-05-09T09:55:53.540Z,18.45
2024-05-09T09:58:21.406Z,18.44
2024-05-09T10:00:48.782Z,18.56
2024-05-09T10:03:16.219Z,18.70
2024-05-09T10:05:46.376Z,18.76
2024-05-09T10:08:16.007Z,18.97
2024-05-09T10:10:46.757Z,18.99
2024-05-09T10:13:14.136Z,19.31
2024-05-09T10:15:51.532Z,19.41
2024-05-09T10:18:27.055Z,19.48
2024-05-09T10:20:56.526Z,19.49
2024-05-09T10:23:27.806Z,19.67
2024-05-09T10:25:58.364Z,19.62
2024-05-09T10:28:27.414Z,19.81
2024-05-09T10:31:07.145Z,19.92
2024-05-09T10:33:38.873Z,19.99
2024-05-09T10:36:22.593Z,19.75
2024-05-09T10:38:51.547Z,19.90
2024-05-09T10:41:19.727Z,19.93
2024-05-09T10:43:47.881Z,19.89
2024-05-09T10:46:15.870Z,20.02
2024-05-09T10:48:44.272Z,19.80
2024-05-09T10:51:11.963Z,19.97
2024-05-09T10:53:46.060Z,20.04
2024-05-09T10:56:14.608Z,19.95
2024-05-09T10:58:42.080Z,20.19
2024-05-09T11:01:10.684Z,20.14
2024-05-09T11:03:39.377Z,20.23
2024-05-09T11:06:07.607Z,20.34
2024-05-09T11:08:35.466Z,20.55
2024-05-09T11:11:06.581Z,20.61
2024-05-09T11:13:37.537Z,20.55
2024-05-09T11:16:06.049Z,20.59
2024-05-09T11:18:37.935Z,20.76
2024-05-09T11:21:14.928Z,20.87
2024-05-09T11:23:42.071Z,20.89
2024-05-09T11:26:10.919Z,21.00
2024-05-09T11:28:38.332Z,21.04
2024-05-09T11:31:10.392Z,21.01
2024-05-09T11:33:39.568Z,21.01
2024-05-09T11:36:08.805Z,21.00
2024-05-09T11:38:35.884Z,21.17
2024-05-09T11:41:03.925Z,21.21
2024-05-09T11:43:31.727Z,21.41
2024-05-09T11:46:00.436Z,21.65
2024-05-09T11:48:28.664Z,21.94
2024-05-09T11:50:56.729Z,22.07
2024-05-09T11:53:24.381Z,22.26
2024-05-09T11:55:51.486Z,22.34
2024-05-09T11:58:19.250Z,22.38
2024-05-09T12:00:47.090Z,22.27
2024-05-09T12:03:14.743Z,22.34
2024-05-09T12:05:42.122Z,22.33
2024-05-09T12:08:09.468Z,22.82
2024-05-09T12:10:37.149Z,23.00
2024-05-09T12:13:06.884Z,23.04
2024-05-09T12:15:38.598Z,23.30
2024-05-09T12:18:07.565Z,23.53
2024-05-09T12:20:38.539Z,24.23
2024-05-09T12:23:09.292Z,24.41
2024-05-09T12:25:38.513Z,24.89
2024-05-09T12:28:06.434Z,25.34
2024-05-09T12:30:38.199Z,25.73
2024-05-09T12:33:08.908Z,26.27
2024-05-09T12:35:36.478Z,27.00
2024-05-09T12:38:06.455Z,28.05
2024-05-09T12:40:37.897Z,29.02
2024-05-09T12:43:08.598Z,29.41
2024-05-09T12:45:37.481Z,29.75
2024-05-09T12:48:07.527Z,29.94
2024-05-09T12:50:35.385Z,30.67
2024-05-09T12:53:03.940Z,31.34
2024-05-09T12:55:43.864Z,31.56
2024-05-09T12:58:17.152Z,31.63
2024-05-09T13:00:45.256Z,32.24
2024-05-09T13:03:15.711Z,32.70
2024-05-09T13:05:47.055Z,32.95
2024-05-09T13:08:14.534Z,33.72
2024-05-09T13:10:42.170Z,34.55
2024-05-09T13:13:12.873Z,35.08
2024-05-09T13:15:41.605Z,35.36
2024-05-09T13:18:09.216Z,35.39
2024-05-09T13:20:37.215Z,35.85
2024-05-09T13:23:06.483Z,36.04
2024-05-09T13:25:35.297Z,36.40
2024-05-09T13:28:03.460Z,37.07
2024-05-09T13:30:39.023Z,37.59
2024-05-09T13:33:15.703Z,37.68
2024-05-09T13:35:47.259Z,38.07
2024-05-09T13:38:21.743Z,37.53
2024-05-09T13:40:50.794Z,37.92
2024-05-09T13:43:18.636Z,38.41
2024-05-09T13:45:46.143Z,38.29
2024-05-09T13:48:13.557Z,38.97
2024-05-09T13:50:40.871Z,39.03
2024-05-09T13:53:08.867Z,39.89
2024-05-09T13:55:38.468Z,39.79
2024-05-09T13:58:06.307Z,39.22
2024-05-09T14:00:44.041Z,39.59
2024-05-09T14:03:16.650Z,40.48
2024-05-09T14:05:45.499Z,41.02
2024-05-09T14:08:15.213Z,41.00
2024-05-09T14:10:47.250Z,41.15
2024-05-09T14:13:15.093Z,41.56
2024-05-09T14:15:42.277Z,41.67
2024-05-09T14:18:13.086Z,41.90
2024-05-09T14:20:41.752Z,42.56
2024-05-09T14:23:08.980Z,43.13
2024-05-09T14:25:41.785Z,43.02
2024-05-09T14:28:13.858Z,43.28
2024-05-09T14:30:41.853Z,42.99
2024-05-09T14:33:09.692Z,43.58
2024-05-09T14:35:38.498Z,43.29
2024-05-09T14:38:06.626Z,43.48
2024-05-09T14:40:41.647Z,42.57
2024-05-09T14:43:12.494Z,42.76
2024-05-09T14:45:40.153Z,43.62
2024-05-09T14:48:08.081Z,43.89
2024-05-09T14:50:38.503Z,44.54
2024-05-09T14:53:08.271Z,44.47
2024-05-09T14:55:40.603Z,45.00
2024-05-09T14:58:09.763Z,44.54
2024-05-09T15:00:46.419Z,44.53
2024-05-09T15:03:21.355Z,44.28
2024-05-09T15:05:50.077Z,44.85
2024-05-09T15:08:18.664Z,44.96
2024-05-09T15:10:52.256Z,44.46
2024-05-09T15:13:20.869Z,45.16
2024-05-09T15:15:48.696Z,44.24
2024-05-09T15:18:16.490Z,44.45
2024-05-09T15:20:44.778Z,45.23
2024-05-09T15:23:12.026Z,45.29
2024-05-09T15:25:39.042Z,45.15
2024-05-09T15:28:07.834Z,43.53
2024-05-09T15:30:35.487Z,43.40
2024-05-09T15:33:06.920Z,43.62
2024-05-09T15:35:38.097Z,43.57
2024-05-09T15:38:05.307Z,44.04
2024-05-09T15:40:39.043Z,43.35
2024-05-09T15:43:09.605Z,44.23
2024-05-09T15:45:41.574Z,44.23
2024-05-09T15:48:09.865Z,44.17
2024-05-09T15:50:40.776Z,44.39
2024-05-09T15:53:11.355Z,43.39
2024-05-09T15:55:39.330Z,44.01
2024-05-09T15:58:09.694Z,43.74
2024-05-09T16:00:40.785Z,44.18
2024-05-09T16:03:14.515Z,44.30
2024-05-09T16:05:46.497Z,44.34
2024-05-09T16:08:14.658Z,44.24
2024-05-09T16:10:48.103Z,43.97
2024-05-09T16:13:16.891Z,43.90
2024-05-09T16:15:44.809Z,43.63
2024-05-09T16:18:12.388Z,43.06
2024-05-09T16:20:42.396Z,42.70
2024-05-09T16:23:11.044Z,43.54
2024-05-09T16:25:39.448Z,42.94
2024-05-09T16:28:09.960Z,43.21
2024-05-09T16:30:41.417Z,42.70
2024-05-09T16:33:09.547Z,43.27
2024-05-09T16:35:37.502Z,42.71
2024-05-09T16:38:05.906Z,42.84
2024-05-09T16:40:38.193Z,42.91
2024-05-09T16:43:12.154Z,42.47
2024-05-09T16:45:40.962Z,42.42
2024-05-09T16:48:08.912Z,42.43
2024-05-09T16:50:36.831Z,42.02
2024-05-09T16:53:05.867Z,41.99
2024-05-09T16:55:34.015Z,42.05
2024-05-09T16:58:03.567Z,40.60
2024-05-09T17:00:39.086Z,40.50
2024-05-09T17:03:12.753Z,40.71
2024-05-09T17:05:41.448Z,40.17
2024-05-09T17:08:09.027Z,39.10
2024-05-09T17:10:36.649Z,39.24
2024-05-09T17:13:05.535Z,38.10
2024-05-09T17:15:34.138Z,36.94
2024-05-09T17:18:01.861Z,37.17
2024-05-09T17:20:33.940Z,36.11
2024-05-09T17:23:05.682Z,35.32
2024-05-09T17:25:33.685Z,34.84
2024-05-09T17:28:07.528Z,34.48
2024-05-09T17:30:38.189Z,33.95
2024-05-09T17:33:08.525Z,32.74
2024-05-09T17:35:36.760Z,32.05
2024-05-09T17:38:08.640Z,31.79
2024-05-09T17:40:37.759Z,31.07
2024-05-09T17:43:08.663Z,30.47
2024-05-09T17:45:38.508Z,30.13
2024-05-09T17:48:06.697Z,29.33
2024-05-09T17:50:36.539Z,29.33
2024-05-09T17:53:08.471Z,29.11
2024-05-09T17:55:36.158Z,28.77
2024-05-09T17:58:04.451Z,28.69
2024-05-09T18:00:38.572Z,28.41
2024-05-09T18:03:12.073Z,28.30
2024-05-09T18:05:41.336Z,27.87
2024-05-09T18:08:08.902Z,27.65
2024-05-09T18:10:39.009Z,27.66
2024-05-09T18:13:08.475Z,27.42
2024-05-09T18:15:36.030Z,27.00
2024-05-09T18:18:03.959Z,26.83
2024-05-09T18:20:40.211Z,26.64
2024-05-09T18:23:11.664Z,26.47
2024-05-09T18:25:38.866Z,26.21
2024-05-09T18:28:07.034Z,26.02
2024-05-09T18:30:36.308Z,25.80
2024-05-09T18:33:07.019Z,25.59
2024-05-09T18:35:36.124Z,25.39
2024-05-09T18:38:05.521Z,25.28
2024-05-09T18:40:36.670Z,25.19
2024-05-09T18:43:07.497Z,24.91
2024-05-09T18:45:38.039Z,24.65
2024-05-09T18:48:07.323Z,24.44
2024-05-09T18:50:38.947Z,24.29
2024-05-09T18:53:10.369Z,24.10
2024-05-09T18:55:38.259Z,23.87
2024-05-09T18:58:05.697Z,23.78
2024-05-09T19:00:36.856Z,23.62
2024-05-09T19:03:09.462Z,23.31
2024-05-09T19:05:40.275Z,23.13
2024-05-09T19:08:08.189Z,22.73
2024-05-09T19:10:37.419Z,22.61
2024-05-09T19:13:09.153Z,22.55
2024-05-09T19:15:40.155Z,22.34
2024-05-09T19:18:09.727Z,22.19
2024-05-09T19:20:37.779Z,22.10
2024-05-09T19:23:07.036Z,21.89
2024-05-09T19:25:36.062Z,21.78
2024-05-09T19:28:04.466Z,21.59
2024-05-09T19:30:40.188Z,21.42
2024-05-09T19:33:11.764Z,21.45
2024-05-09T19:35:40.090Z,21.30
2024-05-09T19:38:08.662Z,21.20
2024-05-09T19:40:38.653Z,20.97
2024-05-09T19:43:06.564Z,20.97
2024-05-09T19:45:35.277Z,20.83
2024-05-09T19:48:04.143Z,20.65
2024-05-09T19:50:39.826Z,20.33
2024-05-09T19:53:14.053Z,20.27
2024-05-09T19:55:42.099Z,20.40
2024-05-09T19:58:10.454Z,20.30
2024-05-09T20:00:41.616Z,20.14
2024-05-09T20:03:15.549Z,20.17
2024-05-09T20:05:47.076Z,19.83
2024-05-09T20:08:14.732Z,19.77
2024-05-09T20:10:41.982Z,19.68
2024-05-09T20:13:09.371Z,19.69
2024-05-09T20:15:37.831Z,19.49
2024-05-09T20:18:08.786Z,19.41
2024-05-09T20:20:41.999Z,19.30
2024-05-09T20:23:11.833Z,19.25
2024-05-09T20:25:39.458Z,19.10
2024-05-09T20:28:07.688Z,19.02
2024-05-09T20:30:38.399Z,18.76
2024-05-09T20:33:08.868Z,18.75
2024-05-09T20:35:37.010Z,18.66
2024-05-09T20:38:04.886Z,18.51
2024-05-09T20:40:36.237Z,18.21
2024-05-09T20:43:07.493Z,18.20
2024-05-09T20:45:35.261Z,18.19
2024-05-09T20:48:02.873Z,18.11
2024-05-09T20:50:38.981Z,18.14
2024-05-09T20:53:13.853Z,18.09
2024-05-09T20:55:43.506Z,17.94
2024-05-09T20:58:11.157Z,17.90
2024-05-09T21:00:42.308Z,17.69
2024-05-09T21:03:14.947Z,17.53
2024-05-09T21:05:43.538Z,17.47
2024-05-09T21:08:10.794Z,17.35
2024-05-09T21:10:40.549Z,17.11
2024-05-09T21:13:07.998Z,17.03
2024-05-09T21:15:35.987Z,16.98
2024-05-09T21:18:04.128Z,16.86
2024-05-09T21:20:34.709Z,16.80
2024-05-09T21:23:02.648Z,16.66
2024-05-09T21:25:30.864Z,16.64
2024-05-09T21:27:58.543Z,16.64
2024-05-09T21:30:32.660Z,16.55
2024-05-09T21:33:10.938Z,16.49
2024-05-09T21:35:39.999Z,16.36
2024-05-09T21:38:07.690Z,16.30
2024-05-09T21:40:36.697Z,16.21
2024-05-09T21:43:05.619Z,16.21
2024-05-09T21:45:34.035Z,16.04
2024-05-09T21:48:03.979Z,16.04
2024-05-09T21:50:37.194Z,15.92
2024-05-09T21:53:07.874Z,15.86
2024-05-09T21:55:35.166Z,15.63
2024-05-09T21:58:02.902Z,15.53
2024-05-09T22:00:36.140Z,15.43
2024-05-09T22:03:09.492Z,15.41
2024-05-09T22:05:38.302Z,15.33
2024-05-09T22:08:06.000Z,15.40
2024-05-09T22:10:35.524Z,15.31
2024-05-09T22:13:05.755Z,15.36
2024-05-09T22:15:36.190Z,15.28
2024-05-09T22:18:05.259Z,15.07
2024-05-09T22:20:37.825Z,15.06
2024-05-09T22:23:07.224Z,14.87
2024-05-09T22:25:34.569Z,14.91
2024-05-09T22:28:02.725Z,14.86
2024-05-09T22:33:00.128Z,14.70
2024-05-09T22:35:27.966Z,14.69
2024-05-09T22:37:55.439Z,14.65
2024-05-09T22:40:32.151Z,14.62
2024-05-09T22:43:06.090Z,14.37
2024-05-09T22:45:33.402Z,14.40
2024-05-09T22:48:00.756Z,14.21
2024-05-09T22:50:33.143Z,14.12
2024-05-09T22:53:01.113Z,14.17
2024-05-09T22:55:28.691Z,13.99
2024-05-09T22:57:56.230Z,13.89
2024-05-09T23:00:31.322Z,14.00
2024-05-09T23:03:03.774Z,13.90
2024-05-09T23:05:32.314Z,13.96
2024-05-09T23:08:01.542Z,13.89
2024-05-09T23:10:36.116Z,13.74
2024-05-09T23:13:06.781Z,13.71
2024-05-09T23:15:34.774Z,13.71
2024-05-09T23:18:01.990Z,13.58
2024-05-09T23:20:36.389Z,13.63
2024-05-09T23:23:07.147Z,13.68
2024-05-09T23:25:34.628Z,13.54
2024-05-09T23:28:01.967Z,13.45
2024-05-09T23:30:37.394Z,13.26
2024-05-09T23:33:08.220Z,13.08
2024-05-09T23:35:35.708Z,12.90
2024-05-09T23:38:03.714Z,12.85
2024-05-09T23:40:38.217Z,12.83
2024-05-09T23:43:08.843Z,12.75
2024-05-09T23:45:36.507Z,12.83
2024-05-09T23:48:04.180Z,12.71
2024-05-09T23:50:35.959Z,12.66
2024-05-09T23:53:06.952Z,12.55
2024-05-09T23:55:35.185Z,12.41
2024-05-09T23:58:02.312Z,12.44
